• Join FlightAware (Why Join?)
  • Login
  • US Flag 
12:13PM EDT


 

Airport Tracker/Info


-or-


 

Live Flight TrackerFlight Track Log ✈ SWA508 ✈ 06-May-2013 ✈ KMCO - KPIT

Flight Track Log - Related Links

Times and Time Zones

All times are in EDT time to prevent confusion due to time zone crossing. See the SWA508 flight status page for this flight to view local times or setup timezone preferences in your user account.

Time Position Orientation Groundspeed Altitude Reporting Facility
EDT Latitude Longitude Course Direction KTS MPH feet Rate Location/Type
08:17AM 28.4000 -81.3000 114° Southeast 160 184 700  Level Orlando TRACON
08:19AM 28.3667 -81.2167 114° Southeast 258 297 4,800 2,580 Climbing Orlando TRACON
08:21AM 28.5081 -81.2011 North 293 337 10,700 2,880 Climbing Jacksonville Center
08:23AM 28.7044 -81.2050 359° North 344 396 16,500 2,880 Climbing Jacksonville Center
08:25AM 28.9014 -81.2775 342° North 369 425 22,300 2,700 Climbing Jacksonville Center
08:26AM 29.0025 -81.3400 332° Northwest 383 441 24,600 2,280 Climbing Jacksonville Center
08:27AM 29.1094 -81.3906 338° Northwest 395 455 26,900 2,160 Climbing Jacksonville Center
08:28AM 29.2306 -81.3958 358° North 408 470 29,000 1,740 Climbing Jacksonville Center
08:29AM 29.3558 -81.3964 360° North 431 496 30,400 1,500 Climbing Jacksonville Center
08:30AM 29.4853 -81.3992 359° North 448 516 32,100 1,740 Climbing Jacksonville Center
08:31AM 29.6147 -81.3994 360° North 454 522 33,900 1,620 Climbing Jacksonville Center
08:32AM 29.7297 -81.4025 359° North 460 529 35,400 1,620 Climbing Jacksonville Center
08:33AM 29.8842 -81.4050 359° North 460 529 37,200 900 Climbing Jacksonville Center
08:35AM 30.1124 -81.4000 North  Level FlightAware Approximate
08:36AM 30.2742 -81.3678 North 460 529 39,000  Level Jacksonville Center
08:37AM 30.4033 -81.3583 North 460 529 39,000  Level Jacksonville Center
08:38AM 30.5328 -81.3467 North 460 529 39,000  Level Jacksonville Center
08:39AM 30.6619 -81.3372 North 460 529 39,000  Level Jacksonville Center
08:41AM 30.9206 -81.3136 North 460 529 39,000  Level Jacksonville Center
08:42AM 31.0519 -81.3017 North 460 529 39,000  Level Jacksonville Center
08:44AM 31.3106 -81.2781 North 459 528 39,000  Level Jacksonville Center
08:45AM 31.4400 -81.2636 North 459 528 39,000  Level Jacksonville Center
08:47AM 31.6881 -81.2422 North 464 534 39,000  Level Jacksonville Center
08:48AM 31.8319 -81.2272 North 464 534 39,000  Level Jacksonville Center
08:49AM 31.9531 -81.2203 North 464 534 39,000  Level Jacksonville Center
08:50AM 32.0844 -81.2056 North 471 542 39,000  Level Jacksonville Center
08:51AM 32.2178 -81.1933 North 476 548 39,000  Level Jacksonville Center
08:52AM 32.3514 -81.1833 North 476 548 39,000  Level Jacksonville Center
08:53AM 32.4992 -81.1708 North 482 555 39,000  Level Jacksonville Center
08:54AM 32.6306 -81.1608 North 476 548 39,000  Level Jacksonville Center
08:56AM 32.8847 -81.1067 10° North 481 554 39,000  Level Jacksonville Center
08:57AM 33.0136 -81.0742 12° North 481 554 39,000  Level Jacksonville Center
08:58AM 33.1447 -81.0469 10° North 481 554 39,000  Level Jacksonville Center
08:59AM 33.2756 -81.0142 12° North 481 554 39,000  Level Jacksonville Center
09:00AM 33.4047 -80.9867 10° North 481 554 39,000  Level Jacksonville Center
09:02AM 33.6667 -80.9261 11° North 481 554 39,000  Level Jacksonville Center
09:03AM 33.7956 -80.8983 10° North 481 554 39,000  Level Jacksonville Center
09:05AM 34.0256 -80.8993 360° North  Level FlightAware Approximate
09:06AM 34.2811 -80.7833 North 471 542 39,000  Level Atlanta Center
09:07AM 34.4119 -80.7531 11° North 471 542 39,000  Level Atlanta Center
09:09AM 34.5535 -80.7117 14° North  Level FlightAware Approximate
09:09AM 34.6753 -80.6922 14° North 462 532 39,000  Level Atlanta Center
09:10AM 34.8081 -80.6617 11° North 472 543 39,000  Level Atlanta Center
09:11AM 34.9386 -80.6283 12° North 467 537 39,000  Level Atlanta Center
09:12AM 34.8490 -80.7899 North  Level FlightAware Approximate
09:12AM 35.0692 -80.6003 10° North 467 537 39,000  Level Atlanta Center
09:13AM 35.2183 -80.5636 11° North 478 550 39,000  Level Atlanta Center
09:14AM 35.3553 -80.5297 11° North 484 557 39,000  Level Atlanta Center
09:15AM 35.4858 -80.4986 11° North 484 557 39,000  Level Atlanta Center
09:17AM 35.6277 -80.4617 12° North  Level FlightAware Approximate
09:17AM 35.7508 -80.4358 12° North 484 557 39,000  Level Atlanta Center
09:18AM 35.8814 -80.4044 11° North 484 557 39,000  Level Atlanta Center
09:19AM 36.0014 -80.3708 13° North 484 557 39,000  Level Atlanta Center
09:20AM 36.1339 -80.3392 11° North 479 551 39,000  Level Atlanta Center
09:21AM 36.2686 -80.3097 10° North 484 557 39,000  Level Atlanta Center
09:22AM 36.4175 -80.2719 12° North 484 557 39,000  Level Atlanta Center
09:24AM 36.6889 -80.2078 11° North 491 565 39,000 -180 Level Washington Center
09:26AM 36.8201 -80.1587 11° North  Level FlightAware Approximate
09:26AM 36.9331 -80.1494 11° North 475 547 38,300  Level Washington Center
09:28AM 37.0692 -80.1136 12° North  Level FlightAware Approximate
09:28AM 37.1983 -80.0844 12° North 470 541 35,600  Level Washington Center
09:29AM 37.3311 -80.0506 11° North 475 547 35,000 -1,080 Descending Washington Center
09:30AM 37.4786 -80.0147 11° North 485 558 33,500 -1,740 Descending Washington Center
09:31AM 37.6133 -79.9806 11° North 490 564 31,600 -1,260 Descending Washington Center
09:33AM 37.7475 -79.9342 15° North  Level FlightAware Approximate
09:33AM 37.8806 -79.9144 15° North 490 564 29,700  Level Washington Center
09:35AM 38.0163 -79.8760 13° North  Level FlightAware Approximate
09:36AM 38.2531 -79.8197 12° North 464 534 25,700  Level Washington Center
09:37AM 38.3731 -79.7869 12° North 447 514 24,000 -900 Descending Washington Center
09:38AM 38.4931 -79.7564 11° North 433 498 24,000  Level Washington Center
09:39AM 38.6067 -79.7283 11° North 426 490 24,000 -180 Level Washington Center
09:40AM 38.7392 -79.6931 12° North 427 491 23,700 -840 Descending Washington Center
09:42AM 38.8213 -79.6579 12° North  Level FlightAware Approximate
09:43AM 39.0292 -79.6106 12° North 429 494 21,200  Level Cleveland Center
09:44AM 39.1394 -79.5875 North 418 481 20,200 -780 Descending Cleveland Center
09:46AM 39.3606 -79.6086 356° North 397 457 19,000 -420 Descending Cleveland Center
09:47AM 39.4711 -79.6258 353° North 397 457 19,000  Level Cleveland Center
09:48AM 39.5817 -79.6403 354° North 397 457 19,000  Level Cleveland Center
09:49AM 39.6922 -79.6522 355° North 397 457 19,000 -300 Level Cleveland Center
09:50AM 39.8031 -79.6669 354° North 397 457 18,400 -1,440 Descending Cleveland Center
09:51AM 39.9094 -79.6792 355° North 391 450 16,200 -2,280 Descending Cleveland Center
09:52AM 40.0136 -79.6914 355° North 381 438 13,900 -2,160 Descending Cleveland Center
09:53AM 40.0956 -79.7636 326° Northwest 353 406 11,900 -1,320 Descending Cleveland Center
09:55AM 40.2197 -79.9578 310° West 343 395 10,000 -780 Descending Cleveland Center
09:56AM 40.2806 -80.0469 312° West 338 389 9,600 -900 Descending Cleveland Center
09:58AM 40.4403 -80.1876 308° West  Level Estimated
09:58AM 40.3814 -80.2097 308° West 304 350 7,400  Level Cleveland Center
09:59AM 40.3961 -80.2997 282° West 263 303 6,400 -1,020 Descending Cleveland Center
10:01AM 40.4833 -80.2167 303° West  Level FlightAware Approximate
10:08AM 40.4915 -80.2329 303° West  Level Estimated
10:09AM 40.4915 -80.2329 303° West  Level Estimated